Terminal Aerodrome Forecast
Issued by NWS Cleveland, OH

Home | Current Version | Previous Version | Graphics & Text | Print | Product List | Glossary On
Versions: 1 2 3 4 5 6 7 8 9 10 11 12 13 14 15 16 17
000
FTUS41 KCLE 181732
TAFYNG
TAF
KYNG 181732Z 1818/1918 VRB03KT P6SM SCT040 BKN150
     FM191100 00000KT P6SM BKN035
     FM191500 VRB04KT P6SM BKN040=

USA.gov is the U.S. government's official web portal to all federal, state and local government web resources and services.